Karan — A8NB3 — position and weather

sailwx.info

Track history (hours):
 
Tides and Currents Weather Stations Pressure Air Temp Water Temp Dewpoint Dewpoint Depression Visibility Wind Speed Wind Dir Waves Ship Positions

Karan

Last reported at 2016-Aug-20 10:19 UTC. Time now 2016-Oct-01 05:01 UTC.
Position N 01°56' E 102°19'.
Warning: this ship's position is 41 days out of date.

Length 333 m; draft 11 m.

Type: Ship (hazmat cat B). MMSI: 636013451.

Date/timePositionNaut miles runAvg speedWind from/ knotsBaromVisibWave heightAir tempDewpointWater temp
2016-Aug-20 10:19N 01°56' E 102°19'1013.9
2016-Aug-20 09:33N 01°51' E 102°28'1515.2
2016-Aug-20 08:33N 01°44' E 102°42'7612.6
2016-Aug-20 02:33N 01°11' E 103°50'7 6.7
2016-Aug-20 01:33N 01°16' E 103°55'0 0.1
2016-Aug-20 00:30N 01°16' E 103°56'0 0.0
2016-Aug-19 23:33N 01°16' E 103°56'0 0.1
2016-Aug-19 22:27N 01°16' E 103°56'0 0.0
2016-Aug-19 19:33N 01°16' E 103°56'0 0.1
2016-Aug-19 18:27N 01°16' E 103°56'0 0.1
2016-Aug-19 15:33N 01°16' E 103°55'0 0.0
2016-Aug-19 13:30N 01°15' E 103°55'0 0.0
2016-Aug-19 12:30N 01°15' E 103°55'0 0.1
2016-Aug-19 11:30N 01°16' E 103°55'0 0.1
2016-Aug-19 10:33N 01°16' E 103°55'0 0.1
2016-Aug-19 09:33N 01°16' E 103°55'0 0.1
2016-Aug-19 08:33N 01°16' E 103°56'2 2.3
2016-Aug-19 07:33N 01°16' E 103°58'5 4.8
2016-Aug-19 06:33N 01°16' E 104°03'  
Track history (hours):
 
Tides and Currents Weather Stations Pressure Air Temp Water Temp Dewpoint Dewpoint Depression Visibility Wind Speed Wind Dir Waves Ship Positions

Karan

Last reported at 2016-Aug-20 10:19 UTC. Time now 2016-Oct-01 05:01 UTC.
Position N 01°56' E 102°19'.
Warning: this ship's position is 41 days out of date.

Length 333 m; draft 11 m.

Type: Ship (hazmat cat B). MMSI: 636013451.

Date/timePositionNaut miles runAvg speedWind from/ knotsBaromVisibWave heightAir tempDewpointWater temp
2016-Aug-20 10:19N 01°56' E 102°19'1013.9
2016-Aug-20 09:33N 01°51' E 102°28'1515.2
2016-Aug-20 08:33N 01°44' E 102°42'7612.6
2016-Aug-20 02:33N 01°11' E 103°50'7 6.7
2016-Aug-20 01:33N 01°16' E 103°55'0 0.1
2016-Aug-20 00:30N 01°16' E 103°56'0 0.0
2016-Aug-19 23:33N 01°16' E 103°56'0 0.1
2016-Aug-19 22:27N 01°16' E 103°56'0 0.0
2016-Aug-19 19:33N 01°16' E 103°56'0 0.1
2016-Aug-19 18:27N 01°16' E 103°56'0 0.1
2016-Aug-19 15:33N 01°16' E 103°55'0 0.0
2016-Aug-19 13:30N 01°15' E 103°55'0 0.0
2016-Aug-19 12:30N 01°15' E 103°55'0 0.1
2016-Aug-19 11:30N 01°16' E 103°55'0 0.1
2016-Aug-19 10:33N 01°16' E 103°55'0 0.1
2016-Aug-19 09:33N 01°16' E 103°55'0 0.1
2016-Aug-19 08:33N 01°16' E 103°56'2 2.3
2016-Aug-19 07:33N 01°16' E 103°58'5 4.8
2016-Aug-19 06:33N 01°16' E 104°03'  

Dump ship's entire track history